SARS/PRQ METAR and TAF weather

Enter ICAO airport designator
Station Type Date Time Source
SARS METAR 2019/05/23 09:30 UTC NOAA

SARS 230930Z 23009KT 9999 OVC005 13/13 Q1015 RERA


Station Type Date Time Source
SARS Decoded METAR 2019/05/23 09:30 UTC NOAA

Presidencia Roque Saenz Pena Aerodrome, Argentina (SARS) 26-49S 060-27W 92M
May 23, 2019 - 05:30 AM EDT / 2019.05.23 0930 UTC
Wind: from the SW (230 degrees) at 10 MPH (9 KT):0
Visibility: greater than 7 mile(s):0
Sky conditions: overcast
Temperature: 55 F (13 C)
Dew Point: 55 F (13 C)
Relative Humidity: 100%
Pressure (altimeter): 29.97 in. Hg (1015 hPa)
ob: SARS 230930Z 23009KT 9999 OVC005 13/13 Q1015 RERA
cycle: 9

Station Type Date Time Source
SARS TAF UTC NOAA

Error!

Example: see airport list